Latest Coastal Weather Observations for Cape Nelson

IDV60701

Issued at 5:15 am EST Saturday 19 April 2014 (issued every 10 minutes, with the page automatically refreshed every 10 minutes)

About coastal observations | Map of coastal stations | Coastal observations for VIC | Marine services | Other Formats
Station Details ID: 090184 Name: CAPE NELSON LIGHTHOUSE Lat: -38.43 Lon: 141.54 Height: 45.4 m
Data from the previous 72 hours. | See also: Recent months at Cape Nelson
Date/Time
EST
Temp

°C
Wind Pressure Rain
since 9am
mm
Weather Cloud Vis
km
Sea
Height
m
Swell
Dir
 
Speed
knots
Gust
knots
hPa Trend Height
m
Period
s
Dir
19/05:00am 12.1 W 6 9 1020.7 - 0.2 - - - - - - -
19/04:30am 12.1 W 7 14 1020.6 - 0.2 - - - - - - -
19/04:00am 12.8 S 10 13 1020.6 - 0.2 - - - - - - -
19/03:30am 12.7 S 8 15 1020.7 - 0.2 - - - - - - -
19/03:00am 12.7 S 11 16 1020.9 - 0.2 - - - - - - -
19/02:30am 12.7 S 14 21 1021.0 - 0.2 - - - - - - -
19/02:00am 12.7 S 17 23 1021.2 - 0.2 - - - - - - -
19/01:30am 13.3 S 12 18 1021.2 - 0.2 - - - - - - -
19/01:00am 13.7 S 10 15 1021.3 - 0.2 - - - - - - -
19/12:30am 13.6 S 12 16 1021.4 - 0.2 - - - - - - -
19/12:00am 13.6 S 10 17 1021.5 - 0.2 - - - - - - -
 
Date/Time
EST
Temp

°C
Wind Pressure Rain
since 9am
mm
Weather Cloud Vis
km
Sea
Height
m
Swell
Dir
 
Speed
knots
Gust
knots
hPa Trend Height
m
Period
s
Dir
18/11:30pm 13.8 S 14 22 1021.5 - 0.2 - - - - - - -
18/11:00pm 14.1 S 9 17 1021.4 - 0.2 - - - - - - -
18/10:30pm 14.0 S 10 17 1021.7 - 0.2 - - - - - - -
18/10:00pm 12.9 NE 7 12 1021.7 - 0.2 - - - - - - -
18/09:30pm 14.1 S 11 19 1021.6 - 0.2 - - - - - - -
18/09:00pm 14.2 S 10 18 1021.4 - 0.2 - - - - - - -
18/08:30pm 13.9 NE 7 11 1021.2 - 0.2 - - - - - - -
18/08:00pm 13.8 S 10 17 1021.0 - 0.2 - - - - - - -
18/07:30pm 14.0 SSE 8 15 1020.9 - 0.2 - - - - - - -
18/07:00pm 13.3 S 13 18 1021.1 - 0.2 - - - - - - -
18/06:30pm 13.7 NE 11 21 1020.5 - 0.2 - - - - - - -
18/06:00pm 13.9 ENE 9 15 1020.4 - 0.2 - - - - - - -
18/05:30pm 14.1 S 11 19 1020.4 - 0.2 - - - - - - -
18/05:00pm 14.4 SSE 9 15 1020.1 - 0.2 - - - - - - -
18/04:30pm 14.4 S 12 19 1019.9 - 0.2 - - - - - - -
18/04:00pm 15.3 NNE 11 15 1019.6 - 0.2 - - - - - - -
18/03:30pm 15.9 NNE 10 17 1019.5 - 0.2 - - - - - - -
18/03:00pm 15.9 ENE 10 21 1019.4 - 0.2 - - - - - - -
18/02:30pm 15.8 NE 11 17 1019.3 - 0.2 - - - - - - -
18/02:00pm 15.8 N 11 18 1019.3 - 0.2 - - - - - - -
18/01:30pm 16.3 NE 11 19 1019.0 - 0.2 - - - - - - -
18/01:00pm 15.6 N 10 16 1018.9 - 0.2 - - - - - - -
18/12:30pm 15.7 NE 10 15 1018.9 - 0.2 - - - - - - -
18/12:00pm 16.1 NE 10 16 1018.9 - 0.0 - - - - - - -
18/11:30am 15.8 NNW 10 17 1018.7 - 0.0 - - - - - - -
18/11:00am 15.2 ESE 10 17 1018.5 - 0.0 - - - - - - -
18/10:30am 15.5 E 12 23 1018.1 - 0.0 - - - - - - -
18/10:00am 15.0 E 9 18 1018.1 - 0.0 - - - - - - -
18/09:30am 15.3 SSE 10 19 1017.8 - 0.0 - - - - - - -
18/09:00am 14.7 S 12 24 1017.6 - 6.0 - - - - - - -
18/08:30am 14.7 S 11 19 1017.2 - 6.0 - - - - - - -
18/08:00am 14.4 SSE 12 21 1016.6 - 6.0 - - - - - - -
18/07:30am 13.7 ENE 10 17 1015.9 - 6.0 - - - - - - -
18/07:00am 13.0 NE 12 23 1015.0 - 6.0 - - - - - - -
18/06:30am 13.3 NE 12 21 1014.5 - 5.6 - - - - - - -
18/06:00am 12.5 NE 15 27 1013.9 - 5.2 - - - - - - -
18/05:30am 14.7 NW 17 29 1013.8 - 1.4 - - - - - - -
18/05:27am 14.7 NW 16 29 1013.8 - 1.4 - - - - - - -
18/05:00am 14.4 NW 18 23 1013.6 - 1.2 - - - - - - -
18/04:30am 14.2 NW 17 25 1013.6 - 1.2 - - - - - - -
18/04:00am 13.7 NNW 13 20 1013.5 - 1.2 - - - - - - -
18/03:30am 13.4 NNW 13 19 1014.0 - 1.2 - - - - - - -
18/03:00am 13.8 NW 11 15 1014.8 - 1.0 - - - - - - -
18/02:30am 14.1 NW 16 22 1015.0 - 0.4 - - - - - - -
18/02:00am 15.7 NNW 15 20 1014.7 - 0.2 - - - - - - -
18/01:30am 14.9 N 10 15 1014.9 - 0.2 - - - - - - -
18/01:00am 14.6 N 10 16 1015.2 - 0.2 - - - - - - -
18/12:30am 13.4 N 11 14 1015.5 - 0.2 - - - - - - -
18/12:00am 12.7 N 11 15 1015.8 - 0.2 - - - - - - -
 
Date/Time
EST
Temp

°C
Wind Pressure Rain
since 9am
mm
Weather Cloud Vis
km
Sea
Height
m
Swell
Dir
 
Speed
knots
Gust
knots
hPa Trend Height
m
Period
s
Dir
17/11:30pm 12.4 N 10 13 1016.5 - 0.2 - - - - - - -
17/11:00pm 12.5 N 11 15 1016.9 - 0.2 - - - - - - -
17/10:30pm 13.0 N 11 15 1017.3 - 0.2 - - - - - - -
17/10:00pm 12.8 NNW 10 15 1017.7 - 0.2 - - - - - - -
17/09:30pm 12.9 NNW 9 13 1017.7 - 0.2 - - - - - - -
17/09:00pm 13.3 NNW 9 14 1017.8 - 0.2 - - - - - - -
17/08:30pm 13.0 NW 8 11 1017.8 - 0.2 - - - - - - -
17/08:00pm 13.3 NW 8 10 1017.9 - 0.2 - - - - - - -
17/07:30pm 13.8 NW 7 10 1017.9 - 0.2 - - - - - - -
17/07:00pm 14.6 WNW 9 12 1017.8 - 0.2 - - - - - - -
17/06:30pm 14.8 WNW 9 13 1017.9 - 0.2 - - - - - - -
17/06:00pm 15.3 W 10 13 1018.1 - 0.2 - - - - - - -
17/05:30pm 15.5 W 11 14 1018.1 - 0.2 - - - - - - -
17/05:00pm 15.9 W 9 12 1018.2 - 0.2 - - - - - - -
17/04:30pm 16.2 W 7 11 1018.3 - 0.2 - - - - - - -
17/04:00pm 16.3 W 13 17 1018.7 - 0.2 - - - - - - -
17/03:30pm 17.0 W 10 17 1018.7 - 0.2 - - - - - - -
17/03:00pm 16.7 W 12 16 1018.7 - 0.2 - - - - - - -
17/02:30pm 16.3 W 9 14 1018.9 - 0.2 - - - - - - -
17/02:00pm 16.6 W 9 14 1018.9 - 0.2 - - - - - - -
17/01:30pm 16.7 W 8 12 1019.1 - 0.2 - - - - - - -
17/01:00pm 17.0 W 11 14 1019.3 - 0.0 - - - - - - -
17/12:30pm 17.7 W 9 12 1019.5 - 0.0 - - - - - - -
17/12:00pm 18.2 WNW 8 11 1019.6 - 0.0 - - - - - - -
17/11:30am 18.7 NNW 9 12 1019.9 - 0.0 - - - - - - -
17/11:00am 17.5 NNW 10 15 1019.9 - 0.0 - - - - - - -
17/10:30am 16.7 NW 11 17 1020.1 - 0.0 - - - - - - -
17/10:00am 17.0 NW 9 13 1020.1 - 0.0 - - - - - - -
17/09:30am 15.7 NNW 10 15 1020.0 - 0.0 - - - - - - -
17/09:00am 15.2 NNW 10 14 1020.0 - 0.0 - - - - - - -
17/08:30am 14.4 NNW 10 13 1019.9 - 0.0 - - - - - - -
17/08:00am 13.4 NNW 7 10 1019.8 - 0.0 - - - - - - -
17/07:30am 13.0 N 7 9 1019.5 - 0.0 - - - - - - -
17/07:00am 13.0 N 9 11 1019.3 - 0.0 - - - - - - -
17/06:30am 12.9 N 9 12 1019.2 - 0.0 - - - - - - -
17/06:00am 12.9 N 9 13 1019.2 - 0.0 - - - - - - -
17/05:30am 12.4 N 8 11 1019.1 - 0.0 - - - - - - -
17/05:00am 11.5 N 7 9 1019.0 - 0.0 - - - - - - -
17/04:30am 11.5 N 8 10 1018.8 - 0.0 - - - - - - -
17/04:00am 10.4 N 8 10 1018.7 - 0.0 - - - - - - -
17/03:30am 10.5 N 7 9 1018.7 - 0.0 - - - - - - -
17/03:00am 10.8 N 10 11 1018.8 - 0.0 - - - - - - -
17/02:30am 10.6 N 8 10 1018.9 - 0.0 - - - - - - -
17/02:00am 10.4 N 8 10 1019.1 - 0.0 - - - - - - -
17/01:30am 10.0 N 8 9 1019.1 - 0.0 - - - - - - -
17/01:00am 9.8 N 6 7 1019.1 - 0.0 - - - - - - -
17/12:30am 9.7 N 6 7 1019.1 - 0.0 - - - - - - -
17/12:00am 10.1 N 6 6 1019.3 - 0.0 - - - - - - -
 
Date/Time
EST
Temp

°C
Wind Pressure Rain
since 9am
mm
Weather Cloud Vis
km
Sea
Height
m
Swell
Dir
 
Speed
knots
Gust
knots
hPa Trend Height
m
Period
s
Dir
16/11:30pm 10.5 N 5 6 1019.4 - 0.0 - - - - - - -
16/11:00pm 10.5 NNW 5 6 1019.5 - 0.0 - - - - - - -
16/10:30pm 10.7 NW 6 6 1019.5 - 0.0 - - - - - - -
16/10:00pm 11.1 NW 6 7 1019.7 - 0.0 - - - - - - -
16/09:30pm 11.2 NW 6 7 1019.5 - 0.0 - - - - - - -
16/09:00pm 11.3 NW 6 7 1019.5 - 0.0 - - - - - - -
16/08:30pm 12.4 WNW 7 8 1019.5 - 0.0 - - - - - - -
16/08:00pm 12.8 NNW 4 5 1019.3 - 0.0 - - - - - - -
16/07:30pm 13.5 NNW 6 7 1019.2 - 0.0 - - - - - - -
16/07:00pm 13.9 NW 7 9 1019.1 - 0.0 - - - - - - -
16/06:30pm 14.6 NW 6 9 1019.1 - 0.0 - - - - - - -
16/06:00pm 14.9 NW 8 10 1019.2 - 0.0 - - - - - - -
16/05:30pm 15.1 NW 7 9 1019.0 - 0.0 - - - - - - -
16/05:00pm 15.4 NW 5 7 1018.9 - 0.0 - - - - - - -
16/04:30pm 15.7 W 7 9 1019.0 - 0.0 - - - - - - -
16/04:00pm 15.6 W 8 10 1019.1 - 0.0 - - - - - - -
16/03:30pm 16.1 W 7 11 1019.2 - 0.0 - - - - - - -
16/03:00pm 17.1 W 5 8 1019.0 - 0.0 - - - - - - -
16/02:30pm 16.1 W 7 11 1019.1 - 0.0 - - - - - - -
16/02:00pm 16.2 W 8 11 1019.0 - 0.0 - - - - - - -
16/01:30pm 17.1 W 7 10 1018.9 - 0.0 - - - - - - -
16/01:00pm 16.8 WNW 7 9 1019.0 - 0.0 - - - - - - -
16/12:30pm 17.5 W 6 8 1019.4 - 0.0 - - - - - - -
16/12:00pm 16.8 W 4 6 1019.7 - 0.0 - - - - - - -
16/11:30am 17.2 N 6 9 1019.8 - 0.0 - - - - - - -
16/11:00am 15.9 N 7 10 1019.8 - 0.0 - - - - - - -
16/10:30am 15.9 NNE 7 10 1019.8 - 0.0 - - - - - - -
16/10:00am 15.2 NE 9 12 1020.1 - 0.0 - - - - - - -
16/09:30am 14.6 NE 10 12 1020.4 - 0.0 - - - - - - -
16/09:00am 14.2 NE 11 14 1020.4 - 0.2 - - - - - - -
16/08:30am 13.6 NNE 10 14 1020.5 - 0.2 - - - - - - -
16/08:00am 12.8 NE 12 15 1020.4 - 0.2 - - - - - - -
16/07:30am 12.6 NNE 11 15 1020.4 - 0.2 - - - - - - -
16/07:00am 12.7 NNE 10 15 1020.1 - 0.2 - - - - - - -
16/06:30am 12.7 NE 10 13 1020.0 - 0.2 - - - - - - -
16/06:00am 13.1 NE 9 12 1020.2 - 0.2 - - - - - - -
16/05:30am 13.4 NE 9 12 1020.2 - 0.2 - - - - - - -

Other Formats:

Comma delimited format used in spreadsheet applications
http://www.bom.gov.au/fwo/IDV60701/IDV60701.94826.axf

JavaScript Object Notation format (JSON) in row-major order
http://www.bom.gov.au/fwo/IDV60701/IDV60701.94826.json